Tiempo atmosférico en la estación meteorológica de Hinojosa Del Duque, Córdoba (540 m.)



Fecha
DESCASC
Temp. máxima en grados centígrados (hora)
DESCASC
Temp. mínima en grados centígrados (hora)
DESCASC
Temp. media en grados centígrados
DESCASC
Racha de viento máxima en m/sg (hora)
DESCASC
Velocidad máxima media en intervalos de 10 minutos(hora)
DESCASC
Precipitaciones diarias en mm
DESCASC
Precipitaciones de 00:00 a 06:00 en mm
DESCASC
Precipitaciones de 06:00 a 12:00 en mm
DESCASC
Precipitaciones de 12:00 a 18:00 en mm
DESCASC
Precipitaciones de 18:00 a 24:00 en mm
DESCASC
14-12-2019 13.2 (14:10) 9.9 (09:00) 11.5 8.33 (08:30) 5.83 (08:30) 0 0 0 0 0
13-12-2019 14.8 (15:10) 9.9 (21:50) 12.3 13.06 (03:10) 10 (03:10) 0 0 0 0 0
12-12-2019 11.1 (14:00) 3.3 (01:20) 7.2 12.22 (16:30) 9.17 (23:10) 0 0 0 0 0
11-12-2019 10.3 (15:50) 2.5 (00:00) 6.4 10 (15:50) 7.5 (15:30) 0 0 0 0 0
10-12-2019 12.3 (15:20) 4 (00:00) 8.2 2.78 (01:30) 1.67 (18:00) 0.1 0 0.1 0 0
09-12-2019 11.2 (05:30) 7.3 (00:00) 9.3 3.61 (17:00) 2.78 (01:10) 0.1 0.1 0 0 0
08-12-2019 13 (16:10) 1.1 (00:00) 7.1 3.89 (15:40) 2.78 (15:40) 0.2 0.1 0.1 0 0
07-12-2019 12.7 (16:20) 1.5 (00:00) 7.1 3.33 (13:30) 2.5 (09:00) 0.1 0 0.1 0 0
06-12-2019 14.2 (14:20) 2.4 (00:00) 8.3 5.28 (15:50) 3.33 (16:50) 0 0 0 0 0
05-12-2019 12.7 (13:10) 6.3 (00:00) 9.5 9.44 (13:00) 6.11 (13:10) 0 0 0 0 0
04-12-2019 13.4 (16:20) 5.8 (00:00) 9.6 5.28 (18:30) 4.17 (18:30) 3.2 0.6 2.5 0 0.1
03-12-2019 12.7 (13:50) 5.4 (00:00) 9 9.17 (11:30) 7.5 (12:00) 0 0 0 0 0
02-12-2019 12.1 (14:20) 7.5 (00:00) 9.8 11.11 (11:40) 7.22 (13:20) 3.4 3.4 0 0 0
01-12-2019 11.6 (14:20) 6.7 (00:00) 9.2 7.78 (15:30) 5.28 (13:40) 6.1 0 0.1 1.2 4.8
30-11-2019 15.9 (11:30) 9 (00:00) 12.4 10 (22:30) 6.67 (22:50) 0.6 0 0 0 0.6
29-11-2019 15.9 (14:20) 9.6 (00:00) 12.8 5 (04:10) 3.33 (03:50) 0 0 0 0 0
28-11-2019 15 (16:30) 7.2 (00:00) 11.1 7.22 (15:00) 4.72 (15:00) 0 0 0 0 0
27-11-2019 15.8 (16:00) 8.7 (00:00) 12.3 8.89 (15:40) 6.39 (13:30) 0.1 0 0 0.1 0
26-11-2019 15.6 (13:30) 10.2 (00:00) 12.9 9.17 (22:30) 6.39 (23:20) 0.2 0 0 0 0.2
25-11-2019 16.8 (16:30) 9.3 (00:00) 13 9.17 (07:40) 6.39 (07:10) 0.9 0.1 0.7 0.1 0
24-11-2019 13.5 (15:20) 4.8 (00:00) 9.2 7.78 (14:30) 5.83 (14:40) 0 0 0 0 0
23-11-2019 13.2 (16:10) 6.8 (00:00) 10 16.11 (03:10) 10.28 (03:10) 1.5 1.4 0.1 0 0
22-11-2019 14.4 (14:40) 9.2 (00:00) 11.8 15 (16:20) 9.17 (16:20) 14.1 0 2 11.9 0.2
21-11-2019 11.9 (16:40) 7.6 (00:00) 9.7 6.11 (11:20) 4.17 (03:20) 1.7 0.1 0 1.4 0.2
20-11-2019 8.8 (18:00) 2.9 (00:00) 5.9 6.11 (12:10) 4.44 (19:10) 9.8 0 2.3 3.8 3.7
19-11-2019 13.3 (15:50) 1.9 (00:00) 7.6 4.44 (14:50) 2.78 (14:50) 0 0 0 0 0
18-11-2019 12.8 (15:40) 3.9 (00:00) 8.4 10 (01:20) 6.67 (01:40) 0.8 0.8 0 0 0
17-11-2019 11.9 (20:30) 2.7 (00:00) 7.3 11.39 (20:50) 7.78 (21:10) 12.3 0 3.2 2.7 6.4
16-11-2019 11.9 (15:40) -0.2 (00:00) 5.8 7.5 (17:10) 5.56 (17:10) 0 0 0 0 0

Gráficas

Temp. máximas Temp. mínimas Temp. medias Precipitaciones Rachas de viento máximas Velocidades máximas media en intervalos de 10 minutos

Datos horarios

Fecha y hora oficial Temperatura (ºC) Velocidad del viento (km/h) Dirección del viento Racha (km/h) Dirección de racha Precipitación (mm) Presión (hPa) Tendencia (hPa) Humedad (%)
2019-12-15 23:00:00 9.9 5 Sudeste 11 Sudeste 0 947.2 -1.3 80
2019-12-15 22:00:00 10.6 5 Sudeste 9 Sur 0 947.4 -1.1 78
2019-12-15 21:00:00 10.7 7 Sur 14 Sudeste 0 948.2 -0.8 79
2019-12-15 20:00:00 10.8 7 Sur 12 Sudeste 0 948.5 -0.9 78
2019-12-15 19:00:00 10.9 8 Sur 12 Sur 0 948.5 -1.5 77
2019-12-15 18:00:00 11.2 7 Sudoeste 17 Sur 0 949 -1.5 74
2019-12-15 17:00:00 12.4 13 Sur 17 Sur 0 949.4 -2.2 68
2019-12-15 16:00:00 13.3 10 Sudoeste 16 Sudoeste 0 950 -2.4 64
2019-12-15 15:00:00 13.4 9 Sudoeste 20 Sudoeste 0 950.5 -2.6 62
2019-12-15 14:00:00 13.3 9 Sudoeste 21 Sudoeste 0 951.6 -2.1 62
2019-12-15 13:00:00 13.2 12 Sudoeste 22 Sudoeste 0 952.4 -1.4 62
2019-12-15 12:00:00 12.9 13 Sudoeste 19 Sudoeste 0 953.1 -0.2 63
2019-12-15 11:00:00 11.7 11 Sur 15 Sur 0 953.7 0.1 68
2019-12-15 10:00:00 10.4 6 Sur 10 Sur 0 953.8 0.5 77
2019-12-15 09:00:00 9.3 5 Sur 8 Sudoeste 0 953.3 0.1 81
2019-12-15 08:00:00 9.7 6 Sudoeste 10 Sudoeste 0 953.6 0.2 79
2019-12-15 07:00:00 9.7 6 Sudoeste 10 Sudoeste 0 953.3 -0.7 78
2019-12-15 06:00:00 9.8 6 Sudoeste 10 Sudoeste 0 953.2 -1.2 78
2019-12-15 05:00:00 10 6 Sudoeste 8 Sudoeste 0 953.4 -1.2 77
2019-12-15 04:00:00 10.3 4 Sudoeste 10 Sudoeste 0 954 -1.4 76
2019-12-15 03:00:00 10.7 5 Sudoeste 12 Oeste 0 954.4 -1.4 73
2019-12-15 02:00:00 10.6 5 Sudoeste 7 Sudoeste 0 954.6 -1.2 74
2019-12-15 01:00:00 10.6 5 Sudoeste 7 Sudoeste 0 955.4 -0.4 76
2019-12-15 00:00:00 10.7 3 Oeste 5 Oeste 0 955.8 -0.3 75
2019-12-14 23:00:00 10.7 2 Oeste 9 Sudoeste 0 955.8 -0.5 79
2019-12-14 22:00:00 10.6 2 Sudoeste 12 Oeste 0 955.8 -0.4 83
2019-12-14 21:00:00 10.9 4 Sudoeste 6 Sudoeste 0 956.1 0 83
2019-12-14 20:00:00 11 4 Sudoeste 7 Sudoeste 0 956.3 0.2 83
2019-12-14 19:00:00 11.3 4 Sudoeste 9 Oeste 0 956.2 0.1 80
2019-12-14 18:00:00 11.5 6 Oeste 10 Oeste 0 956.1 -0.1 76
2019-12-14 17:00:00 12 7 Noroeste 16 Noroeste 0 956.1 -0.6 72
2019-12-14 16:00:00 12.1 15 Noroeste 23 Oeste 0 956.1 -1.1 72
2019-12-14 15:00:00 13 13 Oeste 23 Noroeste 0 956.2 -1.5 70
2019-12-14 14:00:00 12.9 12 Oeste 21 Noroeste 0 956.7 -1.3 70
2019-12-14 13:00:00 11.7 17 Oeste 23 Oeste 0 957.2 -0.4 76
2019-12-14 12:00:00 12.1 13 Noroeste 21 Noroeste 0 957.7 0.3 71
2019-12-14 11:00:00 11.4 13 Noroeste 26 Noroeste 0 958 0.8 72
2019-12-14 10:00:00 10.7 9 Oeste 21 Noroeste 0 957.6 1.1 75
2019-12-14 09:00:00 10 18 Noroeste 30 Noroeste 0 957.4 0.6 74
2019-12-14 08:00:00 10.1 17 Oeste 26 Oeste 0 957.2 0.2 76
2019-12-14 07:00:00 10.2 15 Oeste 22 Oeste 0 956.5 -0.8 83
2019-12-14 06:00:00 10.5 13 Oeste 20 Oeste 0 956.8 -0.6 81
2019-12-14 05:00:00 10.5 10 Oeste 17 Oeste 0 957 -0.3 80
2019-12-14 04:00:00 10.6 11 Oeste 28 Oeste 0 957.3 -0.5 78
2019-12-14 03:00:00 10.9 17 Oeste 26 Oeste 0 957.4 -0.3 86
2019-12-14 02:00:00 11 14 Oeste 21 Oeste 0 957.3 -0.3 91
2019-12-14 01:00:00 10.9 8 Oeste 18 Oeste 0 957.8 0.4 90
2019-12-14 00:00:00 10.8 12 Oeste 23 Oeste 0 957.7 0.2 91
2019-12-13 23:00:00 10.3 9 Oeste 28 Oeste 0 957.6 0.1 92
2019-12-13 22:00:00 9.9 15 Oeste 18 Oeste 0 957.4 0 91
2019-12-13 21:00:00 11.2 15 Oeste 24 Oeste 0 957.5 0.3 86
2019-12-13 20:00:00 12.9 17 Oeste 28 Oeste 0 957.5 0.5 80
2019-12-13 19:00:00 13.4 17 Oeste 28 Oeste 0 957.4 1 77
2019-12-13 18:00:00 13.5 20 Oeste 30 Oeste 0 957.2 0.7 77
2019-12-13 17:00:00 14.1 19 Oeste 34 Oeste 0 957 -0.1 74
2019-12-13 16:00:00 14.3 24 Oeste 38 Oeste 0 956.4 -1.7 72
2019-12-13 15:00:00 14.1 27 Noroeste 42 Noroeste 0 956.5 -1.9 76
2019-12-13 14:00:00 13.8 31 Oeste 45 Oeste 0 957.1 -0.8 80
2019-12-13 13:00:00 13.2 26 Oeste 43 Oeste 0 958.1 1 83
2019-12-13 12:00:00 12.9 30 Oeste 44 Oeste 0 958.4 1.8 85
2019-12-13 11:00:00 12.7 32 Oeste 44 Oeste 0 957.9 1.9 84
2019-12-13 10:00:00 11.8 30 Oeste 44 Oeste 0 957.1 0.9 85
2019-12-13 09:00:00 11.2 26 Oeste 44 Oeste 0 956.6 0.9 86
2019-12-13 08:00:00 11.1 31 Oeste 43 Oeste 0 956 0.4 86
2019-12-13 07:00:00 11.3 28 Oeste 39 Oeste 0 956.2 0.8 84
2019-12-13 06:00:00 11.7 26 Oeste 35 Oeste 0 955.7 0.4 89
2019-12-13 05:00:00 11.9 25 Oeste 45 Oeste 0 955.6 0.1 89
2019-12-13 04:00:00 12.1 30 Oeste 47 Oeste 0 955.4 -0.2 88
2019-12-13 03:00:00 12.1 31 Oeste 44 Oeste 0 955.3 -0.8 91
2019-12-13 02:00:00 11.2 21 Oeste 33 Oeste 0 955.5 -0.2 94
2019-12-13 01:00:00 10.6 23 Oeste 32 Oeste 0 955.6 -0.8 96
2019-12-13 00:00:00 10.3 22 Oeste 44 Oeste 0 956.1 -0.4 95
2019-12-12 23:00:00 10.1 29 Oeste 44 Oeste 0 955.7 -0.8 94
2019-12-12 22:00:00 9.7 21 Oeste 33 Oeste 0 956.4 -0.6 94
2019-12-12 21:00:00 9.5 23 Oeste 33 Oeste 0 956.5 -0.5 93
2019-12-12 20:00:00 9.4 24 Oeste 44 Oeste 0 956.5 -0.9 91
2019-12-12 19:00:00 10.6 28 Oeste 41 Oeste 0 957 -0.6 78
2019-12-12 18:00:00 9.9 17 Oeste 33 Oeste 0 957 -1.3 83
2019-12-12 17:00:00 10.7 23 Oeste 44 Oeste 0 957.4 -1.2 76
2019-12-12 16:00:00 10.8 28 Oeste 39 Oeste 0 957.6 -1.9 74
2019-12-12 15:00:00 10.9 27 Oeste 41 Oeste 0 958.3 -2.6 71
2019-12-12 14:00:00 11.1 29 Oeste 39 Oeste 0 958.6 -3.1 65
2019-12-12 13:00:00 9.9 24 Oeste 33 Oeste 0 959.5 -1.1 78
2019-12-12 12:00:00 9.7 21 Oeste 30 Oeste 0 960.9 0.3 81
2019-12-12 11:00:00 8.3 15 Oeste 26 Oeste 0 961.7 0.9 87
2019-12-12 10:00:00 6 13 Oeste 28 Oeste 0 960.6 -0.3 93
2019-12-12 09:00:00 5.3 19 Oeste 28 Oeste 0 960.6 0 93
2019-12-12 08:00:00 4.6 13 Oeste 22 Oeste 0 960.8 -0.5 90
2019-12-12 07:00:00 4.7 13 Oeste 19 Oeste 0 960.9 -0.6 87
2019-12-12 06:00:00 4.4 13 Oeste 19 Noroeste 0 960.6 -1.1 84
2019-12-12 05:00:00 4 6 Oeste 12 Oeste 0 961.3 -0.8 82
2019-12-12 04:00:00 5 10 Noroeste 21 Noroeste 0 961.5 -0.7 78
2019-12-12 03:00:00 4.1 14 Oeste 21 Oeste 0 961.7 -0.6 81
2019-12-12 02:00:00 3.4 0 Calma 13 Noroeste 0 962.1 -0.4 81
2019-12-12 01:00:00 3.7 5 Sudoeste 14 Oeste 0 962.2 -0.5 80
2019-12-12 00:00:00 4.2 8 Oeste 18 Oeste 0 962.3 -0.2 78
2019-12-11 23:00:00 5.4 11 Oeste 21 Oeste 0 962.5 0.2 71
2019-12-11 22:00:00 5.9 10 Noroeste 23 Noroeste 0 962.7 1 70
2019-12-11 21:00:00 8.1 20 Noroeste 29 Noroeste 0 962.5 1.4 61
2019-12-11 20:00:00 7.5 11 Noroeste 18 Noroeste 0 962.3 1.7 71
2019-12-11 19:00:00 7.7 5 Noroeste 24 Noroeste 0 961.7 1.5 74
2019-12-11 18:00:00 8.9 12 Oeste 28 Noroeste 0 961.1 1.3 83
2019-12-11 17:00:00 9.4 14 Noroeste 31 Oeste 0 960.6 0.5 80
2019-12-11 16:00:00 9.6 23 Noroeste 36 Noroeste 0 960.2 0 81
2019-12-11 15:00:00 9.8 20 Noroeste 28 Noroeste 0 959.8 -1.5 93
2019-12-11 14:00:00 9.7 19 Noroeste 26 Noroeste 0 960.1 -1.2 94
2019-12-11 13:00:00 10.1 14 Oeste 20 Oeste 0 960.2 -0.6 84
2019-12-11 12:00:00 9.5 8 Oeste 14 Oeste 0 961.3 0.7 82
2019-12-11 11:00:00 8.5 8 Oeste 13 Oeste 0 961.3 0.9 85
2019-12-11 10:00:00 6.7 7 Oeste 11 Oeste 0 960.8 0.8 92
2019-12-11 09:00:00 4.6 4 Sudoeste 11 Sudoeste 0 960.6 0.8 93
2019-12-11 08:00:00 3 5 Sudoeste 9 Sudoeste 0 960.4 0.2 96
2019-12-11 07:00:00 2.7 0 Calma 5 Sudoeste 0 960 -0.5 95
2019-12-11 06:00:00 3.3 4 Sur 7 Oeste 0 959.8 -1 96
2019-12-11 05:00:00 3.9 6 Oeste 8 Sudoeste 0 960.2 -0.4 96
2019-12-11 04:00:00 3.3 3 Sudoeste 7 Noroeste 0 960.5 -0.7 94
2019-12-11 03:00:00 5.4 5 Noroeste 6 Noroeste 0 960.8 -0.7 96
2019-12-11 02:00:00 4 5 Sur 6 Sur 0 960.6 -1.2 95
2019-12-11 01:00:00 4.3 5 Sur 7 Noroeste 0 961.2 -0.4 95
2019-12-11 00:00:00 4 6 Oeste 9 Noroeste 0 961.5 0 92
2019-12-10 23:00:00 6.7 4 Noroeste 6 Oeste 0 961.8 0 88
2019-12-10 22:00:00 5.9 4 Oeste 6 Sudoeste 0 961.6 -0.2 89
2019-12-10 21:00:00 6.8 3 Sur 4 Sur 0 961.5 -0.6 91
2019-12-10 20:00:00 7.6 3 Sudoeste 5 Sudoeste 0 961.8 -0.2 88
2019-12-10 19:00:00 8.4 0 Calma 7 Noroeste 0 961.8 -0.3 84
2019-12-10 18:00:00 9.4 6 Noroeste 8 Noroeste 0 962.1 -0.4 83
2019-12-10 17:00:00 12 2 Norte 7 Noroeste 0 962 -1.4 68
2019-12-10 16:00:00 11.9 0 Calma 7 Noroeste 0 962.1 -2 68
2019-12-10 15:00:00 11.7 0 Calma 8 Noroeste 0 962.5 -2 71
2019-12-10 14:00:00 9.1 3 Norte 8 Este 0 963.4 -1.4 83
2019-12-10 13:00:00 7.2 2 Sudeste 7 Este 0 964.1 -0.4 94
2019-12-10 12:00:00 5.7 4 Oeste 7 Oeste 0 964.5 -0.1 97
2019-12-10 11:00:00 5.3 4 Noroeste 6 Noroeste 0 964.8 0.8 98
2019-12-10 10:00:00 4.6 0 Calma 8 Sudeste 0 964.5 0.1 98
2019-12-10 09:00:00 4.9 0 Calma 8 Sudeste 0.1 964.6 0.4 98
2019-12-10 08:00:00 5.4 4 Sudeste 9 Nordeste 0 964 -0.5 98
2019-12-10 07:00:00 6.1 3 Nordeste 8 Este 0 964.4 0 98
2019-12-10 06:00:00 6.7 0 Calma 5 Sudeste 0 964.2 -0.6 97
2019-12-10 05:00:00 7.2 0 Calma 5 Este 0 964.5 -0.4 96
2019-12-10 04:00:00 7 0 Calma 7 Oeste 0 964.4 -1 95
2019-12-10 03:00:00 7.8 0 Calma 8 Este 0 964.8 -0.5 91
2019-12-10 02:00:00 8.7 4 Nordeste 10 Este 0 964.9 -0.4 90
2019-12-10 01:00:00 9.3 4 Nordeste 9 Nordeste 0 965.4 0.1 88
2019-12-10 00:00:00 9.2 3 Nordeste 8 Nordeste 0 965.3 0.4 94
2019-12-09 23:00:00 8.3 2 Este 5 Nordeste 0 965.3 0.5 96
2019-12-09 22:00:00 7.4 3 Este 8 Nordeste 0 965.3 1.2 95
2019-12-09 21:00:00 9 2 Norte 8 Norte 0 964.9 0.1 93
2019-12-09 20:00:00 9.1 6 Norte 9 Norte 0 964.8 -0.2 94
2019-12-09 19:00:00 9.5 6 Sur 8 Sur 0 964.1 -0.7 91
2019-12-09 18:00:00 10.7 0 Calma 11 Norte 0 964.8 0.1 88
2019-12-09 17:00:00 10.8 5 Norte 13 Norte 0 965 0.2 89
2019-12-09 16:00:00 11 0 Calma 10 Noroeste 0 964.8 -0.7 88
2019-12-09 15:00:00 11.1 3 Norte 8 Este 0 964.7 -1.4 91
2019-12-09 14:00:00 11.1 0 Calma 7 Sudeste 0 964.8 -1 92
2019-12-09 13:00:00 10.9 2 Sudeste 9 Noroeste 0 965.5 0.5 92
2019-12-09 12:00:00 10.8 3 Oeste 9 Noroeste 0 966.1 1.5 94
2019-12-09 11:00:00 10.6 5 Noroeste 9 Noroeste 0 965.8 1.8 96
2019-12-09 10:00:00 10.5 2 Nordeste 5 Este 0 965 1.5 98
2019-12-09 09:00:00 10.3 4 Este 5 Este 0 964.6 1.3 98
2019-12-09 08:00:00 10.3 2 Este 6 Sudeste 0 964 1 98
2019-12-09 07:00:00 10.3 5 Este 9 Este 0 963.5 0.5 98
2019-12-09 06:00:00 10.7 5 Este 6 Este 0.1 963.3 0.5 98
2019-12-09 05:00:00 11 2 Oeste 9 Oeste 0 963 0.2 98
2019-12-09 04:00:00 11 6 Sudoeste 9 Oeste 0 963 -0.3 97
2019-12-09 03:00:00 10.7 3 Sudoeste 6 Sur 0 962.8 -0.3 97
2019-12-09 02:00:00 10.5 4 Oeste 12 Noroeste 0 962.8 0.2 96
2019-12-09 01:00:00 10.6 7 Oeste 11 Oeste 0 963.3 0.6 95
2019-12-09 00:00:00 10.5 6 Noroeste 10 Noroeste 0 963.1 0.6 94
2019-12-08 23:00:00 10.4 5 Oeste 12 Oeste 0 962.6 0.3 93
2019-12-08 22:00:00 10.2 10 Oeste 13 Noroeste 0 962.7 0.8 92
2019-12-08 21:00:00 10 4 Oeste 7 Oeste 0 962.5 0.5 93
2019-12-08 20:00:00 10 0 Calma 8 Sur 0 962.3 0.8 91
2019-12-08 19:00:00 10.3 2 Sur 4 Norte 0 961.9 0.5 90
2019-12-08 18:00:00 10.8 4 Norte 9 Noroeste 0 962 0.9 88
2019-12-08 17:00:00 11.6 6 Noroeste 10 Noroeste 0 961.5 0.3 83
2019-12-08 16:00:00 12.7 8 Noroeste 14 Noroeste 0 961.4 -0.5 80
2019-12-08 15:00:00 10.6 4 Noroeste 11 Norte 0 961.1 -1.3 87
2019-12-08 14:00:00 10.4 4 Noroeste 9 Noroeste 0 961.2 -1.6 90
2019-12-08 13:00:00 9.2 0 Calma 10 Norte 0 961.9 -0.7 97
2019-12-08 12:00:00 6.9 2 Sudeste 9 Sudeste 0 962.4 0.2 98
2019-12-08 11:00:00 3.9 4 Sudeste 6 Sudeste 0.1 962.8 1.1 98
2019-12-08 10:00:00 2.2 0 Calma 6 Sudeste 0 962.6 1.2 98
2019-12-08 09:00:00 1.3 3 Noroeste 5 Noroeste 0 962.2 0.9 98
2019-12-08 08:00:00 1.4 3 Sur 6 Sudeste 0 961.7 0.7 98
2019-12-08 07:00:00 1.7 5 Sudeste 8 Sudeste 0 961.4 0.3 98
2019-12-08 06:00:00 2 5 Noroeste 6 Noroeste 0.1 961.3 -0.3 98
2019-12-08 05:00:00 2.1 4 Sudeste 8 Sudeste 0 961 -0.2 98
2019-12-08 04:00:00 1.8 4 Sur 7 Sur 0 961.1 -0.3 97
2019-12-08 03:00:00 3.2 0 Calma 4 Noroeste 0 961.6 0.2 97
2019-12-08 02:00:00 3.1 0 Calma 6 Noroeste 0 961.2 0 97
2019-12-08 01:00:00 3.4 5 Noroeste 6 Noroeste 0 961.4 0.6 97
2019-12-08 00:00:00 4.6 3 Sudeste 5 Sudeste 0 961.4 0.8 97
2019-12-07 23:00:00 5.4 3 Noroeste 7 Noroeste 0 961.2 1 96
2019-12-07 22:00:00 5.6 3 Noroeste 4 Noroeste 0 960.8 1.1 95
2019-12-07 21:00:00 8.1 3 Noroeste 4 Noroeste 0 960.6 1.1 93
2019-12-07 20:00:00 7.4 2 Sudoeste 3 Noroeste 0 960.2 1 93
2019-12-07 19:00:00 9 0 Calma 3 Noroeste 0 959.7 0.8 88
2019-12-07 18:00:00 10.6 2 Noroeste 7 Noroeste 0 959.5 0.8 84
2019-12-07 17:00:00 12.4 5 Noroeste 10 Noroeste 0 959.2 0 74
2019-12-07 16:00:00 12.2 5 Noroeste 10 Noroeste 0 958.9 -0.6 74
2019-12-07 15:00:00 10.5 3 Norte 10 Noroeste 0 958.7 -1.5 80
2019-12-07 14:00:00 8 5 Norte 12 Norte 0 959.2 -1 94
2019-12-07 13:00:00 7.9 2 Norte 6 Norte 0 959.5 -0.2 97
2019-12-07 12:00:00 7.1 0 Calma 5 Sur 0 960.2 1.1 97
2019-12-07 11:00:00 5.2 2 Oeste 6 Noroeste 0 960.2 1.1 98
2019-12-07 10:00:00 4.1 2 Noroeste 11 Sudeste 0.1 959.7 1.1 98
2019-12-07 09:00:00 2 9 Sudeste 10 Sur 0 959.1 1 97
2019-12-07 08:00:00 1.7 3 Sudoeste 5 Sur 0 959.1 1.2 97
2019-12-07 07:00:00 2.6 0 Calma 7 Sur 0 958.6 0.7 97
2019-12-07 06:00:00 3.8 4 Noroeste 9 Noroeste 0 958.1 -0.1 97
2019-12-07 05:00:00 4.7 2 Sur 8 Sur 0 957.9 -0.1 97
2019-12-07 04:00:00 3.5 6 Sur 6 Sur 0 957.9 -0.1 96
2019-12-07 03:00:00 4.4 3 Sudoeste 8 Noroeste 0 958.2 0.2 96
2019-12-07 02:00:00 5 3 Oeste 5 Noroeste 0 958 0.3 95
2019-12-07 01:00:00 5.6 3 Norte 10 Norte 0 958 0.6 95
2019-12-07 00:00:00 6.3 8 Norte 10 Norte 0 958 0.8 94
2019-12-06 23:00:00 7.2 5 Norte 10 Nordeste 0 957.7 0.8 87
2019-12-06 22:00:00 9.6 6 Nordeste 9 Nordeste 0 957.4 1 82
2019-12-06 21:00:00 9.5 4 Nordeste 8 Nordeste 0 957.2 1.3 80
2019-12-06 20:00:00 9.6 5 Nordeste 9 Este 0 956.9 1.2 81
2019-12-06 19:00:00 11 5 Nordeste 13 Nordeste 0 956.4 0.7 74
2019-12-06 18:00:00 11.7 6 Nordeste 18 Nordeste 0 955.9 0.2 71
2019-12-06 17:00:00 13.5 12 Nordeste 18 Nordeste 0 955.7 -0.4 66
2019-12-06 16:00:00 13.9 11 Nordeste 19 Nordeste 0 955.7 -1 65
2019-12-06 15:00:00 14.1 10 Nordeste 18 Norte 0 955.7 -1.4 67
2019-12-06 14:00:00 13.8 10 Norte 18 Norte 0 956.1 -1.2 71
2019-12-06 13:00:00 13.4 5 Nordeste 14 Nordeste 0 956.7 -0.4 70
2019-12-06 12:00:00 11.1 7 Nordeste 14 Este 0 957.1 0.4 74
2019-12-06 11:00:00 9.2 7 Este 12 Nordeste 0 957.3 1.2 84
2019-12-06 10:00:00 7.3 3 Nordeste 9 Nordeste 0 957.1 1.4 92
2019-12-06 09:00:00 5.6 6 Nordeste 14 Nordeste 0 956.7 1.6 95
2019-12-06 08:00:00 5 8 Norte 14 Norte 0 956.1 1.1 97
2019-12-06 07:00:00 3.4 8 Norte 10 Norte 0 955.7 1 97
2019-12-06 06:00:00 3.9 2 Nordeste 4 Oeste 0 955.1 0.4 96
2019-12-06 05:00:00 4.3 0 Calma 8 Este 0 955 0.4 96
2019-12-06 04:00:00 5.9 5 Nordeste 13 Norte 0 954.7 -0.3 93
2019-12-06 03:00:00 5 3 Noroeste 13 Nordeste 0 954.7 -0.2 94
2019-12-06 02:00:00 6.5 5 Nordeste 10 Nordeste 0 954.6 -0.1 92
2019-12-06 01:00:00 6.4 5 Nordeste 11 Este 0 955 1 93
2019-12-06 00:00:00 7 9 Este 14 Nordeste 0 954.9 1.4 89
2019-12-05 23:00:00 7.4 6 Nordeste 11 Norte 0 954.7 1.6 90
2019-12-05 22:00:00 7.6 3 Sudeste 15 Este 0 954 1.6 88
2019-12-05 21:00:00 9 9 Nordeste 16 Nordeste 0 953.5 1.5 85
2019-12-05 20:00:00 9.4 10 Nordeste 14 Este 0 953.1 1.6 83
2019-12-05 19:00:00 9.5 7 Este 21 Este 0 952.4 1.3 82
2019-12-05 18:00:00 11.1 14 Este 24 Este 0 952 1 76
2019-12-05 17:00:00 11.5 15 Nordeste 28 Este 0 951.5 -0.1 71
2019-12-05 16:00:00 11.7 14 Este 26 Este 0 951.1 -0.7 69
2019-12-05 15:00:00 11.7 19 Este 28 Este 0 951 -0.8 68
2019-12-05 14:00:00 11.1 13 Este 34 Este 0 951.6 -0.1 71
2019-12-05 13:00:00 12.5 20 Este 34 Este 0 951.8 0.8 66
2019-12-05 12:00:00 11.2 18 Nordeste 27 Nordeste 0 951.8 1.4 69
2019-12-05 11:00:00 10.3 11 Este 23 Este 0 951.7 2.1 73
2019-12-05 10:00:00 9.6 14 Nordeste 22 Este 0 951 1.9 77
2019-12-05 09:00:00 8.5 10 Nordeste 15 Nordeste 0 950.4 1.9 85
2019-12-05 08:00:00 8.2 6 Nordeste 11 Nordeste 0 949.6 1.4 87
2019-12-05 07:00:00 8.6 5 Nordeste 14 Norte 0 949.1 1.1 89
2019-12-05 06:00:00 8.4 10 Norte 14 Nordeste 0 948.5 0.8 93
2019-12-05 05:00:00 8.3 4 Norte 13 Norte 0 948.2 0.5 94
2019-12-05 04:00:00 8.4 5 Norte 10 Nordeste 0 948 0.3 93
2019-12-05 03:00:00 8 4 Noroeste 9 Noroeste 0 947.7 0.6 95
2019-12-05 02:00:00 8.5 3 Noroeste 7 Norte 0 947.7 0.9 94
2019-12-05 01:00:00 8.9 5 Norte 9 Norte 0 947.7 1.2 94
2019-12-05 00:00:00 8.9 5 Norte 9 Norte 0 947.1 1 94
2019-12-04 23:00:00 9.1 2 Norte 10 Norte 0 946.8 0.9 93
2019-12-04 22:00:00 9 7 Noroeste 10 Noroeste 0.1 946.5 1.1 94
2019-12-04 21:00:00 9.1 4 Noroeste 10 Norte 0 946.1 1 93
2019-12-04 20:00:00 9.3 8 Norte 15 Norte 0 945.9 1.4 91
2019-12-04 19:00:00 10 12 Norte 19 Norte 0 945.4 1.2 83
2019-12-04 18:00:00 11.2 12 Norte 17 Norte 0 945.1 0.8 77
2019-12-04 17:00:00 12.6 10 Noroeste 16 Noroeste 0 944.5 -0.2 67
2019-12-04 16:00:00 12.2 9 Noroeste 18 Noroeste 0 944.2 -1.2 65
2019-12-04 15:00:00 12 8 Noroeste 11 Norte 0 944.3 -1.6 67
2019-12-04 14:00:00 10.2 2 Noroeste 8 Nordeste 0 944.7 -1.5 73
2019-12-04 13:00:00 10.1 0 Calma 7 Noroeste 0 945.4 -0.6 75
2019-12-04 12:00:00 9.1 2 Este 6 Este 0 945.9 0.3 78
2019-12-04 11:00:00 7.9 4 Noroeste 11 Norte 0 946.2 0.3 87
2019-12-04 10:00:00 7.2 0 Calma 10 Sudoeste 0 946 0.4 91
2019-12-04 09:00:00 6.1 5 Sudoeste 8 Sudoeste 0 945.6 -0.1 93
2019-12-04 08:00:00 6 0 Calma 9 Norte 0.1 945.9 -0.1 92
2019-12-04 07:00:00 6 8 Norte 14 Norte 2.4 945.6 -1 93
2019-12-04 06:00:00 7 4 Oeste 10 Nordeste 0.6 945.7 -1.1 86
2019-12-04 05:00:00 7.3 6 Este 10 Este 0 946 -1.5 76
2019-12-04 04:00:00 7.6 8 Nordeste 15 Nordeste 0 946.6 -1.5 75
2019-12-04 03:00:00 7.8 10 Nordeste 18 Este 0 946.8 -1.6 79
2019-12-04 02:00:00 8.1 8 Nordeste 14 Nordeste 0 947.5 -0.5 83
2019-12-04 01:00:00 8.4 6 Nordeste 10 Nordeste 0 948.1 0.1 86
2019-12-04 00:00:00 8.6 5 Nordeste 8 Nordeste 0 948.4 0.5 84
2019-12-03 23:00:00 8.5 5 Nordeste 10 Este 0 948 0.4 87
2019-12-03 22:00:00 8.9 5 Nordeste 8 Nordeste 0 948 0.7 85
2019-12-03 21:00:00 8.7 4 Norte 7 Norte 0 947.9 0.6 90
2019-12-03 20:00:00 9.2 2 Norte 11 Nordeste 0 947.6 0.2 85
2019-12-03 19:00:00 9.8 7 Este 18 Este 0 947.3 0.4 80
2019-12-03 18:00:00 10.3 10 Nordeste 20 Nordeste 0 947.3 0.1 79
2019-12-03 17:00:00 10.9 14 Nordeste 26 Nordeste 0 947.4 0 76
2019-12-03 16:00:00 11.5 17 Nordeste 29 Nordeste 0 946.9 -1 72
2019-12-03 15:00:00 11.7 16 Nordeste 26 Nordeste 0 947.2 -1.3 71
2019-12-03 14:00:00 11.8 18 Nordeste 28 Nordeste 0 947.4 -1.5 70
2019-12-03 13:00:00 11.5 15 Nordeste 31 Este 0 947.9 -1.3 70
2019-12-03 12:00:00 11.2 27 Este 33 Nordeste 0 948.5 -0.5 72
2019-12-03 11:00:00 9.9 16 Este 29 Este 0 948.9 0.1 77
2019-12-03 10:00:00 8.9 17 Este 33 Nordeste 0 949.2 0.9 80
2019-12-03 09:00:00 7.2 6 Nordeste 19 Este 0 949 0.7 87
2019-12-03 08:00:00 5.6 10 Norte 15 Norte 0 948.8 0.3 91
2019-12-03 07:00:00 6.7 6 Nordeste 15 Norte 0 948.3 -0.7 88
2019-12-03 06:00:00 7.1 6 Nordeste 16 Este 0 948.3 -1.1 85
2019-12-03 05:00:00 7.7 12 Este 22 Este 0 948.5 -1.1 81
2019-12-03 04:00:00 8.1 8 Este 25 Este 0 949 -0.9 80
2019-12-03 03:00:00 8 6 Nordeste 20 Este 0 949.4 -0.7 83
2019-12-03 02:00:00 8.7 14 Este 30 Este 0 949.6 -0.7 81
2019-12-03 01:00:00 8.7 16 Este 27 Nordeste 0 949.9 0 81
2019-12-03 00:00:00 8.8 16 Nordeste 24 Nordeste 0 950.1 0.4 81
2019-12-02 23:00:00 9 14 Este 29 Este 0 950.3 1.3 81
2019-12-02 22:00:00 9.5 21 Este 34 Este 0 949.9 1.6 79
2019-12-02 21:00:00 9.6 20 Nordeste 34 Nordeste 0 949.7 1.8 79
2019-12-02 20:00:00 9.5 15 Nordeste 24 Nordeste 0 949 1.4 82
2019-12-02 19:00:00 9.6 19 Nordeste 31 Nordeste 0 948.3 0.9 81
2019-12-02 18:00:00 10.2 19 Nordeste 33 Este 0 947.9 1 78
2019-12-02 17:00:00 10.9 20 Nordeste 35 Este 0 947.6 0.4 75
2019-12-02 16:00:00 10.6 19 Este 38 Nordeste 0 947.4 -0.3 76
2019-12-02 15:00:00 11.6 21 Nordeste 40 Este 0 946.9 -1.2 71
2019-12-02 14:00:00 11.5 26 Este 40 Nordeste 0 947.2 -0.6 71
2019-12-02 13:00:00 11.2 23 Este 39 Nordeste 0 947.7 0.5 71
2019-12-02 12:00:00 11.2 25 Este 40 Este 0 948.1 1.6 72
2019-12-02 11:00:00 10 17 Este 31 Nordeste 0 947.8 1.6 81
2019-12-02 10:00:00 8.8 15 Este 24 Nordeste 0 947.2 1.8 87
2019-12-02 09:00:00 8.2 13 Nordeste 20 Nordeste 0 946.5 1.2 93
2019-12-02 08:00:00 7.9 9 Nordeste 17 Nordeste 0 946.2 0.9 93
2019-12-02 07:00:00 7.6 9 Nordeste 15 Nordeste 0 945.4 0 95
2019-12-02 06:00:00 7.7 9 Este 17 Este 0.3 945.3 0 94
2019-12-02 05:00:00 7.8 6 Este 15 Este 0.1 945.3 0 95
2019-12-02 04:00:00 7.7 5 Nordeste 9 Sudeste 0.1 945.4 -0.1 95
2019-12-02 03:00:00 7.6 6 Sudeste 11 Sudeste 0.7 945.3 -0.4 93
2019-12-02 02:00:00 8.1 6 Sudeste 10 Sudeste 1.9 945.3 -0.4 96
2019-12-02 01:00:00 8.3 3 Este 8 Este 0.3 945.5 -0.1 96
2019-12-02 00:00:00 8.1 6 Este 9 Este 0.1 945.7 0 94
2019-12-01 23:00:00 8.2 0 Calma 8 Este 0.6 945.7 -0.1 94
2019-12-01 22:00:00 8.2 5 Este 12 Sur 1.8 945.6 0.1 93
2019-12-01 21:00:00 8.7 9 Sur 19 Sur 0.6 945.7 0.2 93
2019-12-01 20:00:00 9.1 6 Sudeste 27 Sur 1.6 945.8 0.4 94
2019-12-01 19:00:00 9.4 5 Sudeste 9 Sudeste 0.1 945.5 -0.3 93
2019-12-01 18:00:00 10.1 6 Sur 10 Sudoeste 0.1 945.5 -0.6 88
2019-12-01 17:00:00 11.1 8 Sudoeste 18 Sudoeste 0 945.4 -1.6 80
2019-12-01 16:00:00 9.9 12 Sudoeste 28 Sudoeste 1 945.8 -2.2 85
2019-12-01 15:00:00 11 15 Sudoeste 26 Sur 0.1 946.1 -2.9 85
2019-12-01 14:00:00 11.1 19 Sur 28 Sudoeste 0 947 -2.7 85
2019-12-01 13:00:00 11.3 17 Sudoeste 27 Sur 0 948 -1.8 83
2019-12-01 12:00:00 10.7 16 Sur 25 Sudoeste 0 949 -0.9 84
2019-12-01 11:00:00 9.6 13 Sur 24 Sur 0.1 949.7 -0.2 89
2019-12-01 10:00:00 9.1 10 Sudoeste 21 Sudoeste 0 949.8 -0.2 89
2019-12-01 09:00:00 8.1 8 Sudoeste 16 Sur 0 949.9 -0.2 94
2019-12-01 08:00:00 7.7 12 Sudoeste 20 Oeste 0 949.9 -0.9 95
2019-12-01 07:00:00 7.2 13 Sudoeste 18 Sudoeste 0 950 -1.6 96
2019-12-01 06:00:00 7.3 12 Sudoeste 17 Sudoeste 0 950.1 -1.7 95
2019-12-01 05:00:00 7.1 6 Sudoeste 14 Oeste 0 950.8 -1.7 93
2019-12-01 04:00:00 8.1 5 Sudoeste 17 Oeste 0 951.6 -1.4 92
2019-12-01 03:00:00 9.1 12 Oeste 17 Oeste 0 951.8 -1.6 92
2019-12-01 02:00:00 9.7 10 Oeste 15 Oeste 0 952.5 -1.3 92
2019-12-01 01:00:00 10 7 Sudoeste 13 Sudoeste 0 953 -0.5 93
2019-12-01 00:00:00 9.7 11 Oeste 30 Oeste 0.3 953.4 -0.3 94
2019-11-30 23:00:00 11 24 Oeste 36 Sudoeste 0.3 953.8 -0.6 92
2019-11-30 22:00:00 13.4 10 Sudoeste 22 Sudoeste 0 953.5 -1 78
2019-11-30 21:00:00 13.3 13 Sur 21 Sudoeste 0 953.7 -0.8 78
2019-11-30 20:00:00 13.5 8 Sudoeste 20 Sudoeste 0 954.4 -0.5 77
2019-11-30 19:00:00 13.5 9 Sudoeste 21 Oeste 0 954.5 -0.5 76
2019-11-30 18:00:00 13.8 15 Oeste 24 Oeste 0 954.5 -0.9 73
2019-11-30 17:00:00 14.1 17 Oeste 24 Oeste 0 954.9 -1.6 75
2019-11-30 16:00:00 14.9 14 Oeste 24 Oeste 0 955 -2 76
2019-11-30 15:00:00 15.3 14 Oeste 21 Oeste 0 955.4 -2.3 71
2019-11-30 14:00:00 15.2 11 Oeste 17 Oeste 0 956.5 -1.6 73
2019-11-30 13:00:00 15.6 10 Oeste 16 Oeste 0 957 -1.1 70
2019-11-30 12:00:00 15.2 6 Sudoeste 12 Oeste 0 957.7 0 72
2019-11-30 11:00:00 15.1 3 Sudoeste 9 Oeste 0 958.1 0.5 71
2019-11-30 10:00:00 13.5 4 Sudoeste 7 Sudoeste 0 958.1 0.9 85
2019-11-30 09:00:00 10.2 2 Sudoeste 5 Sudoeste 0 957.7 -0.2 94
2019-11-30 08:00:00 9.6 0 Calma 5 Sudeste 0 957.6 -0.3 94
2019-11-30 07:00:00 10.5 0 Calma 3 Noroeste 0 957.2 -0.7 92
2019-11-30 06:00:00 11.1 0 Calma 4 Oeste 0 957.9 0 89
2019-11-30 05:00:00 10.3 3 Sudoeste 5 Sur 0 957.9 -0.5 93
2019-11-30 04:00:00 9.9 3 Sudoeste 7 Sur 0 957.9 -0.9 93
2019-11-30 03:00:00 9.5 5 Sur 6 Nordeste 0 957.9 -0.4 91
2019-11-30 02:00:00 9.7 0 Calma 7 Noroeste 0 958.4 0.1 92
2019-11-30 01:00:00 9.4 4 Noroeste 7 Sudeste 0 958.8 0.5 91
2019-11-30 00:00:00 9.8 3 Sudoeste 5 Sudoeste 0 958.3 0.1 90
2019-11-29 23:00:00 10.1 3 Sur 5 Sudeste 0 958.3 -0.1 91
2019-11-29 22:00:00 11.6 3 Sur 6 Sur 0 958.3 0.2 86
2019-11-29 21:00:00 13.3 0 Calma 6 Sur 0 958.2 0.2 82
2019-11-29 20:00:00 13.4 3 Sudoeste 5 Sudoeste 0 958.4 0.6 80
2019-11-29 19:00:00 13.4 0 Calma 9 Noroeste 0 958.1 0.3 80
2019-11-29 18:00:00 14.5 3 Noroeste 6 Noroeste 0 958 0.4 76
2019-11-29 17:00:00 15.5 6 Noroeste 13 Oeste 0 957.8 -0.5 69
2019-11-29 16:00:00 15.8 11 Oeste 17 Noroeste 0 957.8 -0.9 66
2019-11-29 15:00:00 15.9 4 Oeste 14 Noroeste 0 957.6 -1.3 63
2019-11-29 14:00:00 15.5 9 Noroeste 16 Oeste 0 958.3 -0.5 68
2019-11-29 13:00:00 14.9 7 Oeste 14 Oeste 0 958.7 0.6 72
2019-11-29 12:00:00 14.6 9 Oeste 17 Sudoeste 0 958.9 1.2 72
2019-11-29 11:00:00 13.7 9 Sudoeste 17 Sudoeste 0 958.8 1.2 76
2019-11-29 10:00:00 13.3 6 Sudoeste 10 Sudoeste 0 958.1 1 81
2019-11-29 09:00:00 11.7 6 Sudoeste 12 Sudoeste 0 957.7 0.7 87
2019-11-29 08:00:00 11.5 8 Sudoeste 15 Oeste 0 957.6 0.9 88
2019-11-29 07:00:00 11.5 8 Sudoeste 14 Oeste 0 957.1 0.6 88
2019-11-29 06:00:00 11.5 6 Sudoeste 15 Oeste 0 957 0.7 89
2019-11-29 05:00:00 11.5 10 Oeste 18 Sudoeste 0 956.7 0.7 88
2019-11-29 04:00:00 11.3 10 Sudoeste 18 Oeste 0 956.5 0.3 88
2019-11-29 03:00:00 11.1 6 Sudoeste 12 Sudoeste 0 956.3 0.1 88
2019-11-29 02:00:00 11.2 6 Sudoeste 11 Sudoeste 0 956 -0.4 87
2019-11-29 01:00:00 11.9 6 Sudoeste 13 Sudoeste 0 956.2 0.3 84
2019-11-29 00:00:00 11.7 5 Sudoeste 13 Sudoeste 0 956.2 0.8 85
2019-11-28 23:00:00 12.1 6 Sudoeste 11 Sudoeste 0 956.4 1.2 84
2019-11-28 22:00:00 11.7 6 Sur 13 Sur 0 955.9 0.8 86
2019-11-28 21:00:00 11.5 7 Sur 15 Sur 0 955.4 0.5 85
2019-11-28 20:00:00 13.2 9 Sur 13 Sur 0 955.2 0.5 82
2019-11-28 19:00:00 13.6 6 Oeste 13 Oeste 0 955.1 0.5 71
2019-11-28 18:00:00 14 7 Oeste 14 Noroeste 0 954.9 0.2 72
2019-11-28 17:00:00 14.5 10 Noroeste 21 Oeste 0 954.7 -0.4 69
2019-11-28 16:00:00 14.5 14 Oeste 22 Oeste 0 954.6 -1.1 67
2019-11-28 15:00:00 14.8 17 Oeste 26 Oeste 0 954.7 -1.5 65
2019-11-28 14:00:00 13.7 8 Sudoeste 17 Sudoeste 0 955.1 -1.2 73
2019-11-28 13:00:00 13.3 10 Sudoeste 18 Sudoeste 0 955.7 0 78
2019-11-28 12:00:00 12.9 12 Sudoeste 17 Sudoeste 0 956.2 0.8 79
2019-11-28 11:00:00 11.9 10 Sudoeste 15 Sudoeste 0 956.3 1.3 85
2019-11-28 10:00:00 10.9 7 Sudoeste 12 Sudoeste 0 955.7 1.2 92
2019-11-28 09:00:00 9.7 5 Sudoeste 12 Sudoeste 0 955.4 1.3 92
2019-11-28 08:00:00 9.1 6 Sudoeste 11 Sudoeste 0 955 1.1 94
2019-11-28 07:00:00 8.3 7 Sudoeste 11 Sudoeste 0 954.5 0.7 95
2019-11-28 06:00:00 7.3 4 Sudoeste 9 Sudoeste 0 954.1 0.4 94
2019-11-28 05:00:00 8 4 Sudoeste 13 Oeste 0 953.9 0 93
2019-11-28 04:00:00 8.6 9 Sudoeste 12 Sudoeste 0 953.8 -0.2 93
2019-11-28 03:00:00 8.9 6 Sudoeste 13 Sudoeste 0 953.7 -0.2 92
2019-11-28 02:00:00 8.8 7 Sudoeste 11 Sudoeste 0 953.9 0.2 93
2019-11-28 01:00:00 8.2 6 Sudoeste 12 Sudoeste 0 954 0.9 92
2019-11-28 00:00:00 9 7 Sudoeste 14 Sudoeste 0 953.9 1 89
2019-11-27 23:00:00 9.2 9 Oeste 12 Sudoeste 0 953.7 1 86
2019-11-27 22:00:00 9.3 7 Sudoeste 12 Sudoeste 0 953.1 1 86
2019-11-27 21:00:00 9.5 6 Sudoeste 10 Sudoeste 0 952.9 0.9 84
2019-11-27 20:00:00 9.8 7 Oeste 10 Sudoeste 0 952.7 1.4 82
2019-11-27 19:00:00 11.2 6 Sudoeste 22 Oeste 0 952.1 0.9 78
2019-11-27 18:00:00 13.4 17 Oeste 28 Oeste 0 952 0.7 69
2019-11-27 17:00:00 14.5 17 Oeste 30 Oeste 0 951.3 -0.7 63
2019-11-27 16:00:00 15.6 17 Oeste 32 Oeste 0 951.2 -1.3 56
2019-11-27 15:00:00 15.2 20 Oeste 30 Oeste 0 951.3 -1.5 62
2019-11-27 14:00:00 13.4 17 Oeste 31 Oeste 0.1 952 -0.8 83
2019-11-27 06:00:00 11.2 18 Oeste 26 Oeste 0 949.7 -0.1 90
2019-11-27 05:00:00 11.5 14 Sudoeste 26 Oeste 0 949.6 -0.1 93
2019-11-27 04:00:00 12 13 Sudoeste 20 Sudoeste 0 949.4 -0.5 89
2019-11-27 03:00:00 11.4 12 Oeste 19 Oeste 0 949.8 -0.4 91
2019-11-27 02:00:00 11.9 13 Oeste 26 Oeste 0 949.7 0 88
2019-11-27 01:00:00 13.3 17 Sudoeste 32 Oeste 0 949.9 0 87
2019-11-27 00:00:00 13.8 16 Oeste 33 Sudoeste 0 950.2 0.6 92
2019-11-26 23:00:00 13.6 20 Sudoeste 33 Sudoeste 0 949.7 0.1 93
2019-11-26 22:00:00 13.6 17 Sudoeste 27 Sudoeste 0 949.9 0.2 92
2019-11-26 21:00:00 13.6 14 Sudoeste 28 Sudoeste 0.2 949.6 0.2 93
2019-11-26 20:00:00 14.1 13 Sur 23 Sur 0 949.6 0 86
2019-11-26 19:00:00 14.1 15 Sur 26 Sur 0 949.7 -0.3 85
2019-11-26 18:00:00 14.4 19 Sur 31 Sur 0 949.4 -1.3 83
2019-11-26 17:00:00 14.9 18 Sudoeste 30 Sudoeste 0 949.6 -1.7 83
2019-11-26 16:00:00 14.5 18 Sudoeste 27 Sudoeste 0 950 -2.1 87
2019-11-26 15:00:00 14.4 12 Sudoeste 26 Sur 0 950.7 -2 90
2019-11-26 14:00:00 15.1 16 Sudoeste 26 Sudoeste 0 951.3 -1.8 85
2019-11-26 13:00:00 14.9 15 Sudoeste 27 Sudoeste 0 952.1 -0.8 87
2019-11-26 12:00:00 14.7 15 Sudoeste 22 Sudoeste 0 952.7 0.2 84
2019-11-26 11:00:00 14 12 Sur 22 Sur 0 953.1 0.4 85
2019-11-26 10:00:00 13.5 15 Sudoeste 23 Sudoeste 0 952.9 0.3 84
2019-11-26 09:00:00 11.7 8 Sur 12 Sur 0 952.5 -0.2 90
2019-11-26 08:00:00 11.3 5 Sudeste 9 Sudeste 0 952.7 -0.2 94
2019-11-26 07:00:00 11 5 Sur 12 Sur 0 952.6 -1 95
2019-11-26 06:00:00 10.3 4 Sur 8 Sudeste 0 952.7 -0.9 96
2019-11-26 05:00:00 10.6 6 Sudoeste 11 Oeste 0 952.9 -1.2 96
2019-11-26 04:00:00 10.4 6 Sudoeste 13 Sudoeste 0 953.6 -0.7 95
2019-11-26 03:00:00 11.1 7 Sudoeste 14 Sudoeste 0 953.6 -0.6 94
2019-11-26 02:00:00 11.8 7 Sudoeste 16 Oeste 0 954.1 -0.4 92
2019-11-26 01:00:00 13.2 6 Sudoeste 12 Sudoeste 0 954.3 0 91
2019-11-26 00:00:00 13.3 6 Sudoeste 11 Sudoeste 0 954.2 0.1 90
2019-11-25 23:00:00 13.2 3 Sudoeste 12 Sudoeste 0 954.5 0.7 91
2019-11-25 22:00:00 12 5 Sudoeste 8 Sudoeste 0 954.3 0.8 93
2019-11-25 21:00:00 11.2 3 Sur 5 Sur 0 954.1 0.9 92
2019-11-25 20:00:00 11.6 3 Sudoeste 7 Oeste 0 953.8 0.8 90
2019-11-25 19:00:00 13.3 2 Oeste 10 Oeste 0 953.5 0.8 86
2019-11-25 18:00:00 14.4 7 Oeste 18 Oeste 0 953.2 0.5 80
2019-11-25 17:00:00 16.3 15 Oeste 25 Oeste 0 953 0 69
2019-11-25 16:00:00 16.1 13 Oeste 31 Oeste 0 952.7 -0.6 78
2019-11-25 15:00:00 15.5 12 Sudoeste 30 Oeste 0 952.7 -1.2 88
2019-11-25 14:00:00 15.1 13 Sudoeste 24 Sudoeste 0 953 -0.9 89
2019-11-25 13:00:00 14.2 13 Sudoeste 26 Sudoeste 0.1 953.3 0.1 93
2019-11-25 12:00:00 13.6 15 Sudoeste 25 Sudoeste 0.2 953.9 1.3 92
2019-11-25 11:00:00 13.8 19 Sudoeste 30 Sudoeste 0 953.9 1.7 88
2019-11-25 10:00:00 13.3 19 Sudoeste 32 Sudoeste 0 953.2 1 91
2019-11-25 09:00:00 12.8 22 Sudoeste 33 Sudoeste 0 952.6 0.5 92
2019-11-25 08:00:00 11.9 20 Sudoeste 33 Sudoeste 0.4 952.2 0.2 94
2019-11-25 07:00:00 11.6 21 Sudoeste 29 Sudoeste 0.1 952.2 -0.3 90
2019-11-25 06:00:00 11.1 12 Sudoeste 23 Sudoeste 0 952.1 -1 90
2019-11-25 05:00:00 10.9 16 Sudoeste 24 Sudoeste 0 952 -1.2 90
2019-11-25 04:00:00 9.9 11 Sudoeste 19 Sudoeste 0 952.5 -1.3 93
2019-11-25 03:00:00 9.9 9 Sudoeste 17 Sudoeste 0.1 953.1 -0.8 90
2019-11-25 02:00:00 10.3 11 Sur 16 Sur 0 953.2 -1 81
2019-11-25 01:00:00 9.8 8 Sur 16 Sur 0 953.8 0 84
2019-11-25 00:00:00 9.5 7 Sur 18 Sudoeste 0 953.9 -0.3 84
2019-11-24 23:00:00 9.3 10 Sudoeste 14 Sudoeste 0 954.2 0.3 85
2019-11-24 22:00:00 10.2 8 Sudoeste 14 Sudoeste 0 953.8 0.5 82
2019-11-24 21:00:00 10.6 5 Sudoeste 10 Oeste 0 954.2 0.8 81
2019-11-24 20:00:00 10.6 3 Sudoeste 9 Oeste 0 953.9 0.8 80
2019-11-24 19:00:00 11.3 5 Oeste 10 Oeste 0 953.3 0.3 76
2019-11-24 18:00:00 11.5 10 Oeste 21 Noroeste 0 953.4 0.7 72
2019-11-24 17:00:00 12.2 15 Noroeste 19 Noroeste 0 953.1 -0.2 67
2019-11-24 16:00:00 13 13 Noroeste 27 Oeste 0 953 -0.7 66
2019-11-24 15:00:00 11.9 17 Noroeste 28 Oeste 0 952.7 -1.7 67
2019-11-24 14:00:00 11.8 14 Oeste 27 Oeste 0 953.3 -0.8 67
2019-11-24 13:00:00 11.1 19 Noroeste 25 Oeste 0 953.7 0.1 70
2019-11-24 12:00:00 11.1 17 Oeste 23 Oeste 0 954.4 1.2 76
2019-11-24 11:00:00 9.2 7 Oeste 16 Oeste 0 954.1 1.3 85
2019-11-24 10:00:00 7.4 9 Oeste 16 Oeste 0 953.6 1.6 92
2019-11-24 09:00:00 5.7 9 Oeste 14 Oeste 0 953.2 1.8 92
2019-11-24 08:00:00 5.2 14 Oeste 19 Oeste 0 952.8 1.9 91
2019-11-24 07:00:00 4.9 12 Oeste 18 Oeste 0 952 1 93
2019-11-24 06:00:00 5.1 13 Oeste 18 Oeste 0 951.4 0.5 91
2019-11-24 05:00:00 5.1 9 Oeste 12 Oeste 0 950.9 -0.1 90
2019-11-24 04:00:00 5.7 8 Noroeste 14 Noroeste 0 951 0 90
2019-11-24 03:00:00 5.2 9 Noroeste 20 Oeste 0 950.9 0.3 92
2019-11-24 02:00:00 5.3 9 Noroeste 17 Oeste 0 951 0.4 91
2019-11-24 01:00:00 6.2 14 Oeste 20 Oeste 0 951 0.7 89
2019-11-24 00:00:00 7.1 17 Oeste 21 Oeste 0 950.6 1 86
2019-11-23 23:00:00 7.2 9 Noroeste 21 Oeste 0 950.6 1.6 83
2019-11-23 22:00:00 7.7 15 Oeste 22 Oeste 0 950.3 2.2 83
2019-11-23 21:00:00 8.3 13 Oeste 21 Oeste 0 949.6 2.5 79
2019-11-23 20:00:00 8.8 12 Oeste 19 Oeste 0 949 2.7 76
2019-11-23 19:00:00 9.3 13 Oeste 29 Oeste 0 948.1 2.6 73
2019-11-23 18:00:00 10.5 21 Oeste 31 Noroeste 0 947.1 2 69
2019-11-23 17:00:00 11.3 23 Noroeste 39 Noroeste 0 946.3 1 64
2019-11-23 16:00:00 12.9 24 Oeste 40 Noroeste 0 945.5 0.9 58
2019-11-23 15:00:00 11.7 24 Oeste 41 Oeste 0 945.1 0.7 63
2019-11-23 14:00:00 11.4 29 Noroeste 41 Noroeste 0 945.3 1.7 62
2019-11-23 13:00:00 11.5 28 Noroeste 43 Oeste 0 944.6 2.4 67
2019-11-23 12:00:00 10.7 30 Noroeste 47 Noroeste 0 944.4 3.2 70
2019-11-23 11:00:00 9.7 26 Noroeste 44 Oeste 0.1 943.6 3.4 74
2019-11-23 10:00:00 9.2 32 Oeste 44 Oeste 0 942.2 3 76
2019-11-23 09:00:00 8 23 Oeste 38 Oeste 0 941.2 2.8 84
2019-11-23 08:00:00 7.7 23 Oeste 36 Oeste 0 940.2 2.1 85
2019-11-23 07:00:00 8 23 Oeste 40 Oeste 0 939.2 1.5 85
2019-11-23 06:00:00 8.7 26 Oeste 40 Oeste 0 938.4 1.6 84
2019-11-23 05:00:00 8.7 29 Oeste 46 Oeste 0 938.1 1.7 84
2019-11-23 04:00:00 9.1 33 Oeste 58 Noroeste 0 937.7 1.6 85
2019-11-23 03:00:00 9.5 35 Oeste 50 Oeste 0.6 936.8 0.6 85
2019-11-23 02:00:00 9.6 33 Oeste 51 Oeste 0.8 936.4 0.2 89
2019-11-23 01:00:00 10.6 26 Oeste 40 Sudoeste 0 936.1 0.3 82
2019-11-23 00:00:00 10.7 22 Sudoeste 41 Oeste 0 936.2 0.7 82
2019-11-22 23:00:00 10.7 27 Oeste 38 Oeste 0.2 936.2 1.1 83
2019-11-22 22:00:00 11.3 19 Sudoeste 44 Oeste 0 935.8 1.4 84
2019-11-22 21:00:00 11.3 20 Sudoeste 38 Sudoeste 0 935.5 1.6 83
2019-11-22 20:00:00 12.9 28 Oeste 43 Oeste 0 935.1 2.4 81
2019-11-22 19:00:00 13.3 22 Oeste 41 Oeste 0 934.4 2.9 80
2019-11-22 18:00:00 13.6 32 Oeste 44 Oeste 0.2 933.9 1.1 82
2019-11-22 17:00:00 13.6 19 Oeste 54 Sudoeste 8 932.7 -0.9 96
2019-11-22 16:00:00 14.1 26 Sudoeste 46 Sudoeste 1.2 931.5 -3.7 89
2019-11-22 15:00:00 14.1 30 Sudoeste 51 Sudoeste 1 932.8 -4.2 90
2019-11-22 14:00:00 13.6 21 Sudoeste 44 Sudoeste 1.2 933.6 -4.3 91
2019-11-22 13:00:00 13.5 22 Sudoeste 36 Sudoeste 0.3 935.2 -3.5 91
2019-11-22 12:00:00 13.2 26 Sudoeste 40 Sur 1.4 937 -2.5 92
2019-11-22 11:00:00 12.4 19 Sur 35 Sur 0.4 937.9 -2.1 91
2019-11-22 10:00:00 12.2 22 Sur 35 Sur 0 938.7 -1.9 90
2019-11-22 09:00:00 10.6 14 Sur 22 Sur 0 939.5 -1.7 90
2019-11-22 08:00:00 10.4 11 Sur 23 Sur 0.1 940 -2.3 90
2019-11-22 07:00:00 10.5 15 Sur 23 Sur 0.1 940.6 -2.5 90
2019-11-22 06:00:00 10.1 12 Sur 18 Sur 0 941.2 -1.6 90
2019-11-22 05:00:00 10.2 12 Sudoeste 18 Sudoeste 0 942.3 -0.8 90
2019-11-22 04:00:00 9.6 5 Sudoeste 13 Sudoeste 0 943.1 -0.8 92
2019-11-22 03:00:00 9.7 9 Sur 12 Sur 0 942.8 -1.4 94
2019-11-22 02:00:00 9.7 7 Sur 10 Sur 0 943.1 -1.2 93
2019-11-22 01:00:00 9.6 5 Sur 11 Sur 0 943.9 -1 94
2019-11-22 00:00:00 9.6 7 Sur 16 Sudoeste 0 944.2 -0.2 93
2019-11-21 23:00:00 9.6 8 Sur 14 Sudoeste 0 944.3 -0.1 94
2019-11-21 22:00:00 10.1 9 Sudoeste 16 Sudoeste 0 944.9 0.9 94
2019-11-21 21:00:00 10.5 7 Sudoeste 16 Sur 0.2 944.4 0.4 93
2019-11-21 20:00:00 10.6 9 Sur 13 Sur 0 944.4 0.5 94
2019-11-21 19:00:00 10.6 5 Sudeste 9 Sur 0 944 -0.1 91
2019-11-21 18:00:00 11.4 4 Sur 7 Sudoeste 0 944 -0.1 85
2019-11-21 17:00:00 11.8 5 Sudoeste 11 Sudoeste 0 943.9 -0.9 85
2019-11-21 16:00:00 11.6 9 Sudoeste 13 Sudoeste 0.1 944.1 -1.2 85
2019-11-21 15:00:00 11.4 7 Sudoeste 17 Sudoeste 0.4 944.1 -1.8 91
2019-11-21 14:00:00 11.1 12 Sudoeste 20 Sudoeste 0.6 944.8 -0.9 91
2019-11-21 13:00:00 10.9 15 Sudoeste 22 Sudoeste 0.3 945.3 -0.1 88
2019-11-21 12:00:00 11.1 10 Sudoeste 22 Sudoeste 0 945.9 0.5 87
2019-11-21 11:00:00 10.8 13 Sudoeste 21 Sudoeste 0 945.7 0.5 87
2019-11-21 10:00:00 9.6 12 Sur 17 Sudoeste 0 945.4 0.2 92
2019-11-21 09:00:00 9.1 11 Sur 18 Sur 0 945.4 0.2 93
2019-11-21 08:00:00 8 6 Sur 12 Sur 0 945.2 0 95
2019-11-21 07:00:00 8.1 7 Sur 12 Sur 0 945.2 -0.6 95
2019-11-21 06:00:00 8.2 7 Sur 15 Sur 0 945.2 -0.7 93
2019-11-21 05:00:00 8.4 4 Sur 13 Sudoeste 0 945.2 -0.6 93
2019-11-21 04:00:00 8.6 12 Sudoeste 22 Sudoeste 0.1 945.8 -0.4 93
2019-11-21 03:00:00 8 11 Sudoeste 17 Sudoeste 0 945.9 -0.3 94
2019-11-21 02:00:00 8 7 Sudoeste 20 Sudoeste 0 945.8 -0.7 93
2019-11-21 01:00:00 8.5 13 Sudoeste 19 Sudoeste 0 946.2 0 93
2019-11-21 00:00:00 7.9 6 Sur 9 Sudoeste 2.1 946.2 0.3 95
2019-11-20 23:00:00 7.7 7 Noroeste 11 Noroeste 1.6 946.5 1.1 96
2019-11-20 22:00:00 7.7 4 Sudeste 7 Sur 0 946.2 1.1 95
2019-11-20 21:00:00 7.7 0 Calma 12 Sudoeste 0 945.9 0.7 94
2019-11-20 20:00:00 8.1 11 Sudoeste 22 Sudoeste 0 945.4 0.1 94
2019-11-20 19:00:00 8.6 13 Sudoeste 21 Sudoeste 0 945.1 -0.2 94
2019-11-20 18:00:00 8.7 7 Sudoeste 20 Sudoeste 0 945.2 -0.1 95
2019-11-20 17:00:00 8.7 13 Sudoeste 21 Sur 0 945.3 -0.6 93
2019-11-20 16:00:00 7.6 4 Sudeste 16 Sudeste 0.1 945.3 -1.5 94
2019-11-20 15:00:00 7.2 6 Este 13 Sudeste 0.9 945.3 -2.6 93
2019-11-20 14:00:00 6.9 6 Sudeste 18 Sudeste 1.9 945.9 -3 91
2019-11-20 13:00:00 6.8 12 Sur 22 Sur 0.9 946.8 -1.3 87
2019-11-20 12:00:00 7.3 14 Sur 19 Sur 0.9 947.9 -0.3 88
2019-11-20 11:00:00 6.6 2 Noroeste 8 Sudeste 1.4 948.9 0.9 90
2019-11-20 10:00:00 6.1 7 Sudeste 11 Sudeste 0 948.1 0 88
2019-11-20 09:00:00 5 6 Sudeste 11 Sudeste 0 948.2 0 91
2019-11-20 08:00:00 3.8 6 Sudeste 12 Sudeste 0 948 -0.8 92
2019-11-20 07:00:00 3.3 9 Sudeste 13 Sudeste 0 948.1 -0.9 91
2019-11-20 06:00:00 3.5 8 Sudeste 9 Sudeste 0 948.2 -1.3 88
2019-11-20 05:00:00 4.9 5 Sudeste 9 Sur 0 948.8 -1.4 86
2019-11-20 04:00:00 4.4 5 Sur 9 Sur 0 949 -1.3 88
2019-11-20 03:00:00 4.1 7 Sudeste 9 Sudeste 0 949.5 -1.2 90
2019-11-20 02:00:00 4.4 6 Sudeste 7 Sudeste 0 950.2 -1.1 91
2019-11-20 01:00:00 4.9 5 Sudeste 9 Sudeste 0 950.3 -1.2 89
2019-11-20 00:00:00 5.7 5 Sudeste 8 Sudeste 0 950.7 -0.9 87
2019-11-19 23:00:00 5.7 6 Sudeste 8 Sudeste 0 951.3 -0.4 87
2019-11-19 22:00:00 5.6 7 Sudeste 9 Sudeste 0 951.5 0.1 86
2019-11-19 21:00:00 6.2 6 Sur 8 Sur 0 951.6 0.2 84
2019-11-19 20:00:00 6.8 5 Sudeste 7 Sudeste 0 951.7 0.3 82
2019-11-19 19:00:00 8.5 3 Este 5 Este 0 951.4 -0.5 75
2019-11-19 18:00:00 9.9 4 Este 5 Este 0 951.4 -0.8 72
2019-11-19 17:00:00 12.3 0 Calma 6 Norte 0 951.4 -1.4 57
2019-11-19 16:00:00 12.2 5 Oeste 10 Sudoeste 0 951.9 -1.4 57
2019-11-19 15:00:00 11.2 9 Oeste 16 Oeste 0 952.2 -2.2 57
2019-11-19 14:00:00 11 6 Oeste 13 Oeste 0 952.8 -2 61
2019-11-19 13:00:00 10.4 3 Oeste 8 Oeste 0 953.3 -1.5 68
2019-11-19 12:00:00 9.1 0 Calma 4 Norte 0 954.4 -0.3 78
2019-11-19 11:00:00 7.7 3 Este 5 Nordeste 0 954.8 0.4 83
2019-11-19 10:00:00 4.9 3 Sudeste 8 Sudeste 0 954.8 0.9 89
2019-11-19 09:00:00 2.9 5 Sudeste 11 Sudeste 0 954.7 0.9 94
2019-11-19 08:00:00 2.2 7 Sudeste 8 Sudeste 0 954.4 0.9 95
2019-11-19 07:00:00 3 3 Oeste 6 Oeste 0 953.9 0.2 94
2019-11-19 06:00:00 2.1 5 Oeste 8 Noroeste 0 953.8 0 94
2019-11-19 05:00:00 2.8 5 Sur 8 Sur 0 953.5 -0.5 93
2019-11-19 04:00:00 2.6 7 Sur 9 Sur 0 953.7 -0.4 93
2019-11-19 03:00:00 2.7 7 Sudeste 8 Sudeste 0 953.8 -0.6 93
2019-11-19 02:00:00 4.3 6 Este 10 Este 0 954 -0.6 89
2019-11-19 01:00:00 4.6 3 Sudoeste 7 Sudoeste 0 954.1 -0.3 88
2019-11-19 00:00:00 5 3 Sudoeste 8 Oeste 0 954.4 0.7 85
2019-11-18 23:00:00 5.3 5 Oeste 9 Sudoeste 0 954.6 1.3 85
2019-11-18 22:00:00 4.8 7 Sur 8 Sudoeste 0 954.4 1.4 87
2019-11-18 21:00:00 5.5 5 Sur 7 Sur 0 953.7 1.2 84
2019-11-18 20:00:00 7.2 5 Oeste 7 Oeste 0 953.3 1.2 80
2019-11-18 19:00:00 8.8 3 Noroeste 4 Oeste 0 953 1.2 71
2019-11-18 18:00:00 10.6 0 Calma 9 Noroeste 0 952.5 0.6 62
2019-11-18 17:00:00 11.5 6 Norte 19 Nordeste 0 952.1 0.3 57
2019-11-18 16:00:00 11.8 9 Norte 19 Noroeste 0 951.8 -0.1 55
2019-11-18 15:00:00 11.5 8 Norte 18 Norte 0 951.9 -0.2 59
2019-11-18 14:00:00 11.4 7 Noroeste 18 Noroeste 0 951.8 -0.2 64
2019-11-18 13:00:00 10.5 10 Noroeste 16 Noroeste 0 951.9 0.6 70
2019-11-18 12:00:00 9.3 6 Oeste 14 Noroeste 0 952.1 1.7 73
2019-11-18 11:00:00 7.8 9 Noroeste 14 Oeste 0 952 2.3 81
2019-11-18 10:00:00 6.4 11 Oeste 14 Oeste 0 951.3 2.3 86
2019-11-18 09:00:00 4.8 8 Oeste 12 Oeste 0 950.4 1.9 91
2019-11-18 08:00:00 4.2 5 Oeste 19 Noroeste 0 949.7 2.3 91
2019-11-18 07:00:00 4.9 12 Noroeste 22 Noroeste 0 949 1.5 87
2019-11-18 06:00:00 5.4 6 Noroeste 26 Noroeste 0 948.5 1.3 84
2019-11-18 05:00:00 5.9 18 Noroeste 25 Noroeste 0 947.4 0.4 84
2019-11-18 04:00:00 6.3 12 Noroeste 30 Noroeste 0 947.5 0.3 87
2019-11-18 03:00:00 7.4 19 Noroeste 24 Noroeste 0 947.2 -0.2 89
2019-11-18 02:00:00 9.3 18 Noroeste 36 Noroeste 0.2 947 -0.9 87
2019-11-18 01:00:00 10.6 20 Oeste 31 Oeste 0.6 947.2 -1.2 94
2019-11-18 00:00:00 10.8 20 Oeste 38 Oeste 0.3 947.4 -0.8 93
2019-11-17 23:00:00 11.2 24 Oeste 35 Oeste 0.4 947.9 -0.9 91
2019-11-17 22:00:00 11.5 22 Oeste 38 Oeste 0 948.4 -0.9 90
2019-11-17 21:00:00 11.7 26 Oeste 41 Oeste 0.3 948.2 -1.3 88
2019-11-17 20:00:00 11.2 16 Oeste 30 Sudoeste 4.3 948.8 -1.3 96
2019-11-17 19:00:00 10.5 18 Sudoeste 32 Sudoeste 1.1 949.3 -1.2 95
2019-11-17 18:00:00 10.7 19 Sudoeste 30 Sudoeste 0.1 949.5 -1.7 93
2019-11-17 17:00:00 10.6 14 Sudoeste 25 Sudoeste 0.1 950.1 -1.7 95
2019-11-17 16:00:00 10.6 17 Sudoeste 28 Oeste 0.1 950.5 -1.9 95
2019-11-17 15:00:00 9.8 15 Sudoeste 24 Oeste 0.2 951.2 -2.2 95
2019-11-17 14:00:00 9.1 13 Sudoeste 21 Sudoeste 1 951.8 -2.2 95
2019-11-17 13:00:00 8.4 9 Sudoeste 17 Sudoeste 1.2 952.4 -1.5 96
2019-11-17 12:00:00 6.8 6 Sur 19 Sur 0.6 953.4 -0.5 95
2019-11-17 11:00:00 5.9 13 Sur 19 Sur 1.3 954 0.2 95
2019-11-17 10:00:00 5.2 11 Sur 18 Sur 0.7 953.9 0.4 95
2019-11-17 09:00:00 4.9 8 Sudoeste 21 Sudoeste 0.5 953.9 0.3 95
2019-11-17 08:00:00 4.7 10 Sudoeste 17 Sudoeste 0.1 953.8 0.3 90
2019-11-17 07:00:00 4.8 10 Sudoeste 14 Sudoeste 0 953.5 -0.2 84
2019-11-17 06:00:00 3.4 6 Sudoeste 12 Sudoeste 0 953.6 -0.2 86
2019-11-17 05:00:00 2.9 7 Sudoeste 14 Oeste 0 953.5 -0.3 86
2019-11-17 04:00:00 3.2 6 Sudoeste 20 Oeste 0 953.7 -0.3 84
2019-11-17 03:00:00 4.5 16 Oeste 25 Oeste 0 953.8 -0.6 79
2019-11-17 02:00:00 4.2 14 Oeste 21 Oeste 0 953.8 -0.4 78
2019-11-17 01:00:00 4.8 15 Oeste 21 Oeste 0 954 -0.3 74
2019-11-17 00:00:00 4.9 14 Oeste 20 Oeste 0 954.4 0.2 73
2019-11-16 23:00:00 5 7 Oeste 16 Sudoeste 0 954.2 0.5 68
2019-11-16 22:00:00 5.5 9 Sudoeste 15 Sudoeste 0 954.3 0.9 65
2019-11-16 21:00:00 6.4 12 Sudoeste 16 Oeste 0 954.2 1.2 61
2019-11-16 20:00:00 6.7 11 Oeste 14 Oeste 0 953.7 1.2 60
2019-11-16 19:00:00 7.5 6 Sudoeste 17 Noroeste 0 953.4 1.3 55
2019-11-16 18:00:00 9.3 15 Noroeste 27 Noroeste 0 953 1 50
2019-11-16 17:00:00 10.9 19 Noroeste 24 Noroeste 0 952.5 0.6 44
2019-11-16 16:00:00 11.6 16 Oeste 24 Oeste 0 952.1 -0.2 44
2019-11-16 15:00:00 11.5 13 Oeste 21 Oeste 0 952 -0.7 41
2019-11-16 14:00:00 10.1 8 Noroeste 15 Noroeste 0 951.9 -0.5 49
2019-11-16 13:00:00 9.4 4 Oeste 14 Noroeste 0 952.3 0.5 54
2019-11-16 12:00:00 7.7 9 Oeste 17 Oeste 0 952.7 1.7 62
2019-11-16 11:00:00 5.9 4 Oeste 9 Noroeste 0 952.4 2.3 70
2019-11-16 10:00:00 3.6 5 Noroeste 9 Oeste 0 951.8 2.8 81
2019-11-16 09:00:00 1.1 6 Oeste 9 Oeste 0 951 2.9 90
2019-11-16 08:00:00 0.2 0 Calma 9 Oeste 0 950.1 2.4 88
2019-11-16 07:00:00 0.9 5 Oeste 10 Oeste 0 949 1.8 86
2019-11-16 06:00:00 1 10 Oeste 14 Oeste 0 948.1 1.6 84
2019-11-16 05:00:00 1.1 12 Oeste 16 Oeste 0 947.7 1.5 83
2019-11-16 04:00:00 1.4 13 Oeste 17 Oeste 0 947.2 0.9 81
2019-11-16 03:00:00 1.7 10 Oeste 16 Oeste 0 946.5 0.7 78
2019-11-16 02:00:00 1.9 9 Oeste 17 Oeste 0 946.2 0.5 77
2019-11-16 01:00:00 2.4 5 Oeste 13 Oeste 0 946.3 1 76
2019-11-16 00:00:00 2.6 7 Oeste 11 Oeste 0 945.8 0.9 75